Time,TemperatureF,DewpointF,PressureIn,WindDirection,WindDirectionDegrees,WindSpeedMPH,WindSpeedGustMPH,Humidity,HourlyPrecipIn,Conditions,Clouds,dailyrainin,SolarRadiationWatts/m^2,SoftwareType,DateUTC
2013-04-11 00:02:00,65.0,24.0,-100.00,NW,312,7.0,17.0,21,0.00,,,0.00,0.000000,,2013-04-11 07:02:00,
2013-04-11 00:12:00,65.0,24.0,-100.00,NW,312,7.0,17.0,21,0.00,,,0.00,0.000000,,2013-04-11 07:12:00,
2013-04-11 00:21:00,65.0,24.0,-100.00,NW,312,7.0,17.0,21,0.00,,,0.00,0.000000,,2013-04-11 07:21:00,
2013-04-11 00:52:00,63.0,24.0,-100.00,SE,125,4.0,12.0,22,0.00,,,0.00,0.000000,,2013-04-11 07:52:00,
2013-04-11 01:02:00,63.0,24.0,-100.00,SE,125,4.0,12.0,22,0.00,,,0.00,0.000000,,2013-04-11 08:02:00,
2013-04-11 01:12:00,63.0,24.0,-100.00,SE,125,4.0,12.0,22,0.00,,,0.00,0.000000,,2013-04-11 08:12:00,
2013-04-11 01:22:00,63.0,24.0,-100.00,SE,125,4.0,12.0,22,0.00,,,0.00,0.000000,,2013-04-11 08:22:00,
2013-04-11 01:52:00,63.0,22.0,-100.00,West,259,5.0,13.0,21,0.00,,,0.00,0.000000,,2013-04-11 08:52:00,
2013-04-11 02:02:00,63.0,22.0,-100.00,West,259,5.0,13.0,21,0.00,,,0.00,0.000000,,2013-04-11 09:02:00,
2013-04-11 02:12:00,63.0,22.0,-100.00,West,259,5.0,13.0,21,0.00,,,0.00,0.000000,,2013-04-11 09:12:00,
2013-04-11 02:22:00,63.0,22.0,-100.00,West,259,5.0,13.0,21,0.00,,,0.00,0.000000,,2013-04-11 09:22:00,
2013-04-11 02:53:00,64.0,25.0,-100.00,SSE,167,11.0,25.0,23,0.00,,,0.00,0.000000,,2013-04-11 09:53:00,
2013-04-11 03:02:00,64.0,25.0,-100.00,SSE,167,11.0,25.0,23,0.00,,,0.00,0.000000,,2013-04-11 10:02:00,
2013-04-11 03:12:00,64.0,25.0,-100.00,SSE,167,11.0,25.0,23,0.00,,,0.00,0.000000,,2013-04-11 10:12:00,
2013-04-11 03:22:00,64.0,25.0,-100.00,SSE,167,11.0,25.0,23,0.00,,,0.00,0.000000,,2013-04-11 10:22:00,
2013-04-11 03:52:00,58.0,20.0,-100.00,East,90,6.0,28.0,23,-99.99,,,0.00,0.000000,,2013-04-11 10:52:00,
2013-04-11 04:02:00,58.0,20.0,-100.00,East,90,6.0,28.0,23,-99.99,,,0.00,0.000000,,2013-04-11 11:02:00,
2013-04-11 04:12:00,58.0,20.0,-100.00,East,90,6.0,28.0,23,-99.99,,,0.00,0.000000,,2013-04-11 11:12:00,
2013-04-11 04:22:00,58.0,20.0,-100.00,East,90,6.0,28.0,23,-99.99,,,0.00,0.000000,,2013-04-11 11:22:00,
2013-04-11 04:52:00,57.0,22.0,-100.00,NE,54,6.0,12.0,25,0.00,,,-99.99,0.000000,,2013-04-11 11:52:00,
2013-04-11 05:02:00,57.0,22.0,-100.00,NE,54,6.0,12.0,25,0.00,,,-99.99,0.000000,,2013-04-11 12:02:00,
2013-04-11 05:12:00,57.0,22.0,-100.00,NE,54,6.0,12.0,25,0.00,,,-99.99,0.000000,,2013-04-11 12:12:00,
2013-04-11 05:22:00,57.0,22.0,-100.00,NE,54,6.0,12.0,25,0.00,,,-99.99,0.000000,,2013-04-11 12:22:00,
2013-04-11 05:52:00,59.0,22.0,-100.00,South,169,3.0,12.0,24,0.00,,,-99.99,0.000000,,2013-04-11 12:52:00,
2013-04-11 06:02:00,59.0,22.0,-100.00,South,169,3.0,12.0,24,0.00,,,-99.99,0.000000,,2013-04-11 13:02:00,
2013-04-11 06:12:00,59.0,22.0,-100.00,South,169,3.0,12.0,24,0.00,,,-99.99,0.000000,,2013-04-11 13:12:00,
2013-04-11 06:22:00,59.0,22.0,-100.00,South,169,3.0,12.0,24,0.00,,,-99.99,0.000000,,2013-04-11 13:22:00,
2013-04-11 06:54:00,58.0,21.0,-100.00,South,180,3.0,11.0,24,0.00,,,0.00,0.000000,,2013-04-11 13:54:00,
2013-04-11 07:02:00,58.0,21.0,-100.00,South,180,3.0,11.0,24,0.00,,,0.00,0.000000,,2013-04-11 14:02:00,
2013-04-11 07:12:00,58.0,21.0,-100.00,South,180,3.0,11.0,24,0.00,,,0.00,0.000000,,2013-04-11 14:12:00,
2013-04-11 07:22:00,58.0,21.0,-100.00,South,180,3.0,11.0,24,0.00,,,0.00,0.000000,,2013-04-11 14:22:00,
2013-04-11 07:52:00,64.0,17.0,-100.00,WNW,293,24.0,35.0,16,-99.99,,,0.00,33.000000,,2013-04-11 14:52:00,
2013-04-11 08:02:00,64.0,17.0,-100.00,WNW,293,24.0,35.0,16,-99.99,,,0.00,33.000000,,2013-04-11 15:02:00,
2013-04-11 08:12:00,64.0,17.0,-100.00,WNW,293,24.0,35.0,16,-99.99,,,0.00,33.000000,,2013-04-11 15:12:00,
2013-04-11 08:22:00,64.0,17.0,-100.00,WNW,293,24.0,35.0,16,-99.99,,,0.00,33.000000,,2013-04-11 15:22:00,
2013-04-11 09:53:00,67.0,19.0,-100.00,East,99,2.0,13.0,16,-99.99,,,0.00,558.000000,,2013-04-11 16:53:00,
2013-04-11 10:02:00,67.0,19.0,-100.00,East,99,2.0,13.0,16,-99.99,,,0.00,558.000000,,2013-04-11 17:02:00,
2013-04-11 10:12:00,67.0,19.0,-100.00,East,99,2.0,13.0,16,-99.99,,,0.00,558.000000,,2013-04-11 17:12:00,
2013-04-11 10:22:00,67.0,19.0,-100.00,East,99,2.0,13.0,16,-99.99,,,0.00,558.000000,,2013-04-11 17:22:00,
2013-04-11 10:53:00,71.0,19.0,-100.00,SSE,164,2.0,12.0,14,0.00,,,0.00,865.000000,,2013-04-11 17:53:00,
2013-04-11 11:02:00,71.0,19.0,-100.00,SSE,164,2.0,12.0,14,0.00,,,0.00,865.000000,,2013-04-11 18:02:00,
2013-04-11 11:13:00,71.0,19.0,-100.00,SSE,164,2.0,12.0,14,0.00,,,0.00,865.000000,,2013-04-11 18:13:00,
2013-04-11 11:22:00,71.0,19.0,-100.00,SSE,164,2.0,12.0,14,0.00,,,0.00,865.000000,,2013-04-11 18:22:00,
2013-04-11 11:53:00,70.0,19.0,-100.00,SSE,159,9.0,15.0,14,0.00,,,0.00,1055.000000,,2013-04-11 18:53:00,
2013-04-11 12:03:00,70.0,19.0,-100.00,SSE,159,9.0,15.0,14,0.00,,,0.00,1055.000000,,2013-04-11 19:03:00,
2013-04-11 12:13:00,70.0,19.0,-100.00,SSE,159,9.0,15.0,14,0.00,,,0.00,1055.000000,,2013-04-11 19:13:00,
2013-04-11 12:22:00,70.0,19.0,-100.00,SSE,159,9.0,15.0,14,0.00,,,0.00,1055.000000,,2013-04-11 19:22:00,
2013-04-11 12:53:00,74.0,20.0,-100.00,SSE,160,10.0,19.0,13,0.00,,,0.00,1173.000000,,2013-04-11 19:53:00,
2013-04-11 13:02:00,74.0,20.0,-100.00,SSE,160,10.0,19.0,13,0.00,,,0.00,1173.000000,,2013-04-11 20:02:00,
2013-04-11 13:13:00,74.0,20.0,-100.00,SSE,160,10.0,19.0,13,0.00,,,0.00,1173.000000,,2013-04-11 20:13:00,
2013-04-11 13:21:00,74.0,20.0,-100.00,SSE,160,10.0,19.0,13,0.00,,,0.00,1173.000000,,2013-04-11 20:21:00,
2013-04-11 13:52:00,76.0,20.0,-100.00,South,171,15.0,24.0,12,0.00,,,0.00,1210.000000,,2013-04-11 20:52:00,
2013-04-11 14:02:00,76.0,20.0,-100.00,South,171,15.0,24.0,12,0.00,,,0.00,1210.000000,,2013-04-11 21:02:00,
2013-04-11 14:12:00,76.0,20.0,-100.00,South,171,15.0,24.0,12,0.00,,,0.00,1210.000000,,2013-04-11 21:12:00,
2013-04-11 14:22:00,76.0,20.0,-100.00,South,171,15.0,24.0,12,0.00,,,0.00,1210.000000,,2013-04-11 21:22:00,
2013-04-11 14:54:00,77.0,16.0,-100.00,South,170,12.0,24.0,10,0.00,,,0.00,1172.000000,,2013-04-11 21:54:00,
2013-04-11 15:03:00,77.0,16.0,-100.00,South,170,12.0,24.0,10,0.00,,,0.00,1172.000000,,2013-04-11 22:03:00,
2013-04-11 15:13:00,77.0,16.0,-100.00,South,170,12.0,24.0,10,0.00,,,0.00,1172.000000,,2013-04-11 22:13:00,
2013-04-11 15:22:00,77.0,16.0,-100.00,South,170,12.0,24.0,10,0.00,,,0.00,1172.000000,,2013-04-11 22:22:00,
2013-04-11 15:53:00,78.0,17.0,-100.00,South,174,12.0,21.0,10,0.00,,,0.00,1054.000000,,2013-04-11 22:53:00,
2013-04-11 16:03:00,78.0,17.0,-100.00,South,174,12.0,21.0,10,0.00,,,0.00,1054.000000,,2013-04-11 23:03:00,
2013-04-11 16:12:00,78.0,17.0,-100.00,South,174,12.0,21.0,10,0.00,,,0.00,1054.000000,,2013-04-11 23:12:00,
2013-04-11 16:22:00,78.0,17.0,-100.00,South,174,12.0,21.0,10,0.00,,,0.00,1054.000000,,2013-04-11 23:22:00,
2013-04-11 16:53:00,77.0,16.0,-100.00,SSE,164,11.0,22.0,10,0.00,,,0.00,864.000000,,2013-04-11 23:53:00,
2013-04-11 17:02:00,77.0,16.0,-100.00,SSE,164,11.0,22.0,10,0.00,,,0.00,864.000000,,2013-04-12 00:02:00,
2013-04-11 17:12:00,77.0,16.0,-100.00,SSE,164,11.0,22.0,10,0.00,,,0.00,864.000000,,2013-04-12 00:12:00,
2013-04-11 17:21:00,77.0,16.0,-100.00,SSE,164,11.0,22.0,10,0.00,,,0.00,864.000000,,2013-04-12 00:21:00,
2013-04-11 17:53:00,77.0,18.0,-100.00,South,177,14.0,21.0,11,0.00,,,0.00,579.000000,,2013-04-12 00:53:00,
2013-04-11 18:02:00,77.0,18.0,-100.00,South,177,14.0,21.0,11,0.00,,,0.00,579.000000,,2013-04-12 01:02:00,
2013-04-11 18:12:00,77.0,18.0,-100.00,South,177,14.0,21.0,11,0.00,,,0.00,579.000000,,2013-04-12 01:12:00,
2013-04-11 18:22:00,77.0,18.0,-100.00,South,177,14.0,21.0,11,0.00,,,0.00,579.000000,,2013-04-12 01:22:00,
2013-04-11 18:52:00,70.0,17.0,-100.00,South,174,12.0,21.0,13,0.00,,,0.00,203.000000,,2013-04-12 01:52:00,
2013-04-11 19:02:00,70.0,17.0,-100.00,South,174,12.0,21.0,13,0.00,,,0.00,203.000000,,2013-04-12 02:02:00,
2013-04-11 19:12:00,70.0,17.0,-100.00,South,174,12.0,21.0,13,0.00,,,0.00,203.000000,,2013-04-12 02:12:00,
2013-04-11 19:22:00,70.0,17.0,-100.00,South,174,12.0,21.0,13,0.00,,,0.00,203.000000,,2013-04-12 02:22:00,
2013-04-11 19:52:00,67.0,23.0,-100.00,WSW,255,8.0,14.0,19,0.00,,,0.00,20.000000,,2013-04-12 02:52:00,
2013-04-11 20:02:00,67.0,23.0,-100.00,WSW,255,8.0,14.0,19,0.00,,,0.00,20.000000,,2013-04-12 03:02:00,
2013-04-11 20:12:00,67.0,23.0,-100.00,WSW,255,8.0,14.0,19,0.00,,,0.00,20.000000,,2013-04-12 03:12:00,
2013-04-11 20:22:00,67.0,23.0,-100.00,WSW,255,8.0,14.0,19,0.00,,,0.00,20.000000,,2013-04-12 03:22:00,
2013-04-11 20:53:00,66.0,21.0,-100.00,SW,225,8.0,14.0,18,0.00,,,0.00,0.000000,,2013-04-12 03:53:00,
2013-04-11 21:03:00,66.0,21.0,-100.00,SW,225,8.0,14.0,18,0.00,,,0.00,0.000000,,2013-04-12 04:03:00,
2013-04-11 21:13:00,66.0,21.0,-100.00,SW,225,8.0,14.0,18,0.00,,,0.00,0.000000,,2013-04-12 04:13:00,
2013-04-11 21:22:00,66.0,21.0,-100.00,SW,225,8.0,14.0,18,0.00,,,0.00,0.000000,,2013-04-12 04:22:00,
2013-04-11 21:53:00,66.0,20.0,-100.00,West,268,8.0,14.0,17,0.00,,,0.00,0.000000,,2013-04-12 04:53:00,
2013-04-11 22:02:00,66.0,20.0,-100.00,West,268,8.0,14.0,17,0.00,,,0.00,0.000000,,2013-04-12 05:02:00,
2013-04-11 22:12:00,66.0,20.0,-100.00,West,268,8.0,14.0,17,0.00,,,0.00,0.000000,,2013-04-12 05:12:00,
2013-04-11 22:22:00,66.0,20.0,-100.00,West,268,8.0,14.0,17,0.00,,,0.00,0.000000,,2013-04-12 05:22:00,
2013-04-11 22:52:00,67.0,22.0,-100.00,NW,320,4.0,11.0,18,0.00,,,0.00,0.000000,,2013-04-12 05:52:00,
2013-04-11 23:02:00,67.0,22.0,-100.00,NW,320,4.0,11.0,18,0.00,,,0.00,0.000000,,2013-04-12 06:02:00,
2013-04-11 23:52:00,64.0,25.0,-100.00,NW,305,4.0,10.0,23,0.00,,,0.00,0.000000,,2013-04-12 06:52:00,